sensor_id;sensor_type;location;lat;lon;timestamp;noise_LAeq;noise_LA_min;noise_LA_max;noise_LA01;noise_LA95
56099;Laerm;44276;49.534;6.378;2024-02-23T00:00:01;46.21;43.24;58.76;;
56099;Laerm;44276;49.534;6.378;2024-02-23T00:02:32;45.77;43.29;55.35;;
56099;Laerm;44276;49.534;6.378;2024-02-23T00:05:00;46.31;43.54;56.11;;
56099;Laerm;44276;49.534;6.378;2024-02-23T00:07:29;45.25;43.34;53.91;;
56099;Laerm;44276;49.534;6.378;2024-02-23T00:09:57;44.69;43.19;51.10;;
56099;Laerm;44276;49.534;6.378;2024-02-23T00:12:25;46.11;43.34;58.99;;
56099;Laerm;44276;49.534;6.378;2024-02-23T00:14:53;44.50;43.24;46.93;;
56099;Laerm;44276;49.534;6.378;2024-02-23T00:17:23;44.67;43.19;49.70;;
56099;Laerm;44276;49.534;6.378;2024-02-23T00:19:51;46.06;43.04;56.29;;
56099;Laerm;44276;49.534;6.378;2024-02-23T00:22:20;44.68;43.04;49.66;;
56099;Laerm;44276;49.534;6.378;2024-02-23T00:24:48;44.73;43.24;52.78;;
56099;Laerm;44276;49.534;6.378;2024-02-23T00:27:17;44.74;43.24;52.96;;
56099;Laerm;44276;49.534;6.378;2024-02-23T00:29:45;44.44;43.24;48.28;;
56099;Laerm;44276;49.534;6.378;2024-02-23T00:32:13;44.43;42.98;48.91;;
56099;Laerm;44276;49.534;6.378;2024-02-23T00:34:43;44.67;43.19;53.99;;
56099;Laerm;44276;49.534;6.378;2024-02-23T00:37:11;44.47;43.09;47.02;;
56099;Laerm;44276;49.534;6.378;2024-02-23T00:39:39;44.41;43.19;46.62;;
56099;Laerm;44276;49.534;6.378;2024-02-23T00:42:07;44.43;43.39;46.10;;
56099;Laerm;44276;49.534;6.378;2024-02-23T00:44:36;44.39;43.24;45.75;;
56099;Laerm;44276;49.534;6.378;2024-02-23T00:47:05;44.44;43.14;45.69;;
56099;Laerm;44276;49.534;6.378;2024-02-23T00:49:33;44.40;43.14;45.63;;
56099;Laerm;44276;49.534;6.378;2024-02-23T00:52:03;44.40;43.19;45.48;;
56099;Laerm;44276;49.534;6.378;2024-02-23T00:54:31;44.42;43.29;46.07;;
56099;Laerm;44276;49.534;6.378;2024-02-23T00:56:59;44.41;43.29;46.29;;
56099;Laerm;44276;49.534;6.378;2024-02-23T00:59:28;44.46;43.24;46.59;;
56099;Laerm;44276;49.534;6.378;2024-02-23T01:01:56;44.39;43.24;45.89;;
56099;Laerm;44276;49.534;6.378;2024-02-23T01:04:24;44.52;43.29;48.94;;
56099;Laerm;44276;49.534;6.378;2024-02-23T01:06:53;44.60;43.34;50.83;;
56099;Laerm;44276;49.534;6.378;2024-02-23T01:09:22;44.46;43.19;49.74;;
56099;Laerm;44276;49.534;6.378;2024-02-23T01:11:50;44.57;43.24;47.84;;
56099;Laerm;44276;49.534;6.378;2024-02-23T01:14:19;44.46;43.34;46.87;;
56099;Laerm;44276;49.534;6.378;2024-02-23T01:16:47;44.50;43.09;49.73;;
56099;Laerm;44276;49.534;6.378;2024-02-23T01:19:16;44.52;43.09;49.67;;
56099;Laerm;44276;49.534;6.378;2024-02-23T01:21:45;44.88;43.14;51.47;;
56099;Laerm;44276;49.534;6.378;2024-02-23T01:24:13;44.60;43.09;49.69;;
56099;Laerm;44276;49.534;6.378;2024-02-23T01:26:43;44.57;43.39;50.02;;
56099;Laerm;44276;49.534;6.378;2024-02-23T01:29:11;44.89;43.29;55.85;;
56099;Laerm;44276;49.534;6.378;2024-02-23T01:31:39;45.10;43.24;55.04;;
56099;Laerm;44276;49.534;6.378;2024-02-23T01:34:07;44.72;43.39;49.93;;
56099;Laerm;44276;49.534;6.378;2024-02-23T01:36:36;44.65;42.98;50.93;;
56099;Laerm;44276;49.534;6.378;2024-02-23T01:39:06;44.52;43.29;47.42;;
56099;Laerm;44276;49.534;6.378;2024-02-23T01:41:35;44.47;42.82;46.66;;
56099;Laerm;44276;49.534;6.378;2024-02-23T01:44:04;44.41;43.09;45.99;;
56099;Laerm;44276;49.534;6.378;2024-02-23T01:46:33;44.45;43.28;48.03;;
56099;Laerm;44276;49.534;6.378;2024-02-23T01:49:01;44.50;42.98;47.88;;
56099;Laerm;44276;49.534;6.378;2024-02-23T01:51:31;44.41;43.24;47.76;;
56099;Laerm;44276;49.534;6.378;2024-02-23T01:54:00;44.49;43.29;47.48;;
56099;Laerm;44276;49.534;6.378;2024-02-23T01:56:29;44.55;43.09;47.90;;
56099;Laerm;44276;49.534;6.378;2024-02-23T01:58:58;44.55;43.34;49.81;;
56099;Laerm;44276;49.534;6.378;2024-02-23T02:01:28;44.60;43.19;49.97;;
56099;Laerm;44276;49.534;6.378;2024-02-23T02:03:58;44.51;43.09;54.11;;
56099;Laerm;44276;49.534;6.378;2024-02-23T02:06:27;44.93;43.34;56.21;;
56099;Laerm;44276;49.534;6.378;2024-02-23T02:08:55;45.27;43.24;54.21;;
56099;Laerm;44276;49.534;6.378;2024-02-23T02:11:23;45.44;43.19;55.04;;
56099;Laerm;44276;49.534;6.378;2024-02-23T02:13:52;45.06;43.34;54.98;;
56099;Laerm;44276;49.534;6.378;2024-02-23T02:16:20;44.60;43.34;48.63;;
56099;Laerm;44276;49.534;6.378;2024-02-23T02:18:50;44.57;43.09;48.45;;
56099;Laerm;44276;49.534;6.378;2024-02-23T02:21:18;44.76;43.29;52.75;;
56099;Laerm;44276;49.534;6.378;2024-02-23T02:23:50;44.64;43.29;49.70;;
56099;Laerm;44276;49.534;6.378;2024-02-23T02:26:18;44.55;43.19;49.03;;
56099;Laerm;44276;49.534;6.378;2024-02-23T02:28:47;44.54;43.29;47.30;;
56099;Laerm;44276;49.534;6.378;2024-02-23T02:31:15;44.65;43.19;49.35;;
56099;Laerm;44276;49.534;6.378;2024-02-23T02:33:44;44.84;43.44;53.60;;
56099;Laerm;44276;49.534;6.378;2024-02-23T02:36:14;45.29;42.93;57.71;;
56099;Laerm;44276;49.534;6.378;2024-02-23T02:38:42;45.30;43.34;56.71;;
56099;Laerm;44276;49.534;6.378;2024-02-23T02:41:10;45.03;43.34;56.01;;
56099;Laerm;44276;49.534;6.378;2024-02-23T02:43:38;45.20;43.34;55.21;;
56099;Laerm;44276;49.534;6.378;2024-02-23T02:46:07;44.77;43.24;50.31;;
56099;Laerm;44276;49.534;6.378;2024-02-23T02:48:35;44.82;43.39;54.40;;
56099;Laerm;44276;49.534;6.378;2024-02-23T02:51:04;44.73;43.34;48.98;;
56099;Laerm;44276;49.534;6.378;2024-02-23T02:53:33;44.66;43.34;48.32;;
56099;Laerm;44276;49.534;6.378;2024-02-23T02:56:05;44.71;43.29;48.57;;
56099;Laerm;44276;49.534;6.378;2024-02-23T02:58:34;45.04;43.29;53.65;;
56099;Laerm;44276;49.534;6.378;2024-02-23T03:01:03;44.60;43.19;53.89;;
56099;Laerm;44276;49.534;6.378;2024-02-23T03:03:31;44.81;43.24;53.95;;
56099;Laerm;44276;49.534;6.378;2024-02-23T03:05:59;44.90;43.24;52.94;;
56099;Laerm;44276;49.534;6.378;2024-02-23T03:08:30;44.51;43.19;49.45;;
56099;Laerm;44276;49.534;6.378;2024-02-23T03:10:59;44.62;43.19;50.02;;
56099;Laerm;44276;49.534;6.378;2024-02-23T03:13:27;44.86;43.19;52.53;;
56099;Laerm;44276;49.534;6.378;2024-02-23T03:15:56;44.68;43.19;50.57;;
56099;Laerm;44276;49.534;6.378;2024-02-23T03:18:24;44.73;43.19;50.87;;
56099;Laerm;44276;49.534;6.378;2024-02-23T03:20:54;44.40;43.14;46.23;;
56099;Laerm;44276;49.534;6.378;2024-02-23T03:23:23;44.48;43.14;47.30;;
56099;Laerm;44276;49.534;6.378;2024-02-23T03:25:51;44.45;43.24;49.55;;
56099;Laerm;44276;49.534;6.378;2024-02-23T03:28:21;44.49;43.04;47.42;;
56099;Laerm;44276;49.534;6.378;2024-02-23T03:30:49;44.61;42.98;51.02;;
56099;Laerm;44276;49.534;6.378;2024-02-23T03:33:17;44.68;43.19;52.54;;
56099;Laerm;44276;49.534;6.378;2024-02-23T03:35:45;44.46;43.24;46.57;;
56099;Laerm;44276;49.534;6.378;2024-02-23T03:38:14;44.67;43.29;50.54;;
56099;Laerm;44276;49.534;6.378;2024-02-23T03:40:42;44.51;43.24;49.36;;
56099;Laerm;44276;49.534;6.378;2024-02-23T03:43:10;44.38;43.19;45.72;;
56099;Laerm;44276;49.534;6.378;2024-02-23T03:45:40;44.37;43.04;45.83;;
56099;Laerm;44276;49.534;6.378;2024-02-23T03:48:08;44.36;43.04;45.75;;
56099;Laerm;44276;49.534;6.378;2024-02-23T03:50:36;44.40;42.88;47.44;;
56099;Laerm;44276;49.534;6.378;2024-02-23T03:53:05;44.33;43.14;45.54;;
56099;Laerm;44276;49.534;6.378;2024-02-23T03:55:33;44.34;43.14;46.35;;
56099;Laerm;44276;49.534;6.378;2024-02-23T03:58:01;44.87;43.19;53.07;;
56099;Laerm;44276;49.534;6.378;2024-02-23T04:00:30;44.68;43.24;53.81;;
56099;Laerm;44276;49.534;6.378;2024-02-23T04:02:59;45.00;43.34;54.43;;
56099;Laerm;44276;49.534;6.378;2024-02-23T04:05:27;45.10;42.93;53.26;;
56099;Laerm;44276;49.534;6.378;2024-02-23T04:07:56;44.93;43.09;52.83;;
56099;Laerm;44276;49.534;6.378;2024-02-23T04:10:24;44.71;43.14;54.46;;
56099;Laerm;44276;49.534;6.378;2024-02-23T04:12:52;45.36;43.24;55.19;;
56099;Laerm;44276;49.534;6.378;2024-02-23T04:15:20;44.49;43.24;47.16;;
56099;Laerm;44276;49.534;6.378;2024-02-23T04:17:49;44.51;43.19;48.21;;
56099;Laerm;44276;49.534;6.378;2024-02-23T04:20:18;44.88;42.76;50.87;;
56099;Laerm;44276;49.534;6.378;2024-02-23T04:22:47;44.53;43.14;50.09;;
56099;Laerm;44276;49.534;6.378;2024-02-23T04:25:15;44.37;43.19;45.48;;
56099;Laerm;44276;49.534;6.378;2024-02-23T04:27:43;44.51;43.14;48.16;;
56099;Laerm;44276;49.534;6.378;2024-02-23T04:30:12;44.36;43.24;45.39;;
56099;Laerm;44276;49.534;6.378;2024-02-23T04:32:41;44.45;43.14;49.34;;
56099;Laerm;44276;49.534;6.378;2024-02-23T04:35:10;44.33;43.14;46.52;;
56099;Laerm;44276;49.534;6.378;2024-02-23T04:37:39;44.38;43.09;46.80;;
56099;Laerm;44276;49.534;6.378;2024-02-23T04:40:09;44.35;43.04;45.99;;
56099;Laerm;44276;49.534;6.378;2024-02-23T04:42:38;44.37;43.00;45.75;;
56099;Laerm;44276;49.534;6.378;2024-02-23T04:45:07;44.35;43.09;45.66;;
56099;Laerm;44276;49.534;6.378;2024-02-23T04:47:36;44.44;42.95;49.57;;
56099;Laerm;44276;49.534;6.378;2024-02-23T04:50:06;44.47;42.98;49.23;;
56099;Laerm;44276;49.534;6.378;2024-02-23T04:52:35;44.70;43.04;55.56;;
56099;Laerm;44276;49.534;6.378;2024-02-23T04:55:06;44.51;43.34;48.32;;
56099;Laerm;44276;49.534;6.378;2024-02-23T04:57:36;44.56;43.24;49.91;;
56099;Laerm;44276;49.534;6.378;2024-02-23T05:00:07;44.48;43.09;48.74;;
56099;Laerm;44276;49.534;6.378;2024-02-23T05:02:35;44.43;43.19;47.24;;
56099;Laerm;44276;49.534;6.378;2024-02-23T05:05:04;44.33;42.98;45.42;;
56099;Laerm;44276;49.534;6.378;2024-02-23T05:07:32;44.30;42.98;45.63;;
56099;Laerm;44276;49.534;6.378;2024-02-23T05:10:01;44.29;43.24;45.36;;
56099;Laerm;44276;49.534;6.378;2024-02-23T05:12:32;44.28;42.98;45.72;;
56099;Laerm;44276;49.534;6.378;2024-02-23T05:15:00;44.28;43.09;45.66;;
56099;Laerm;44276;49.534;6.378;2024-02-23T05:17:29;44.28;43.19;45.45;;
56099;Laerm;44276;49.534;6.378;2024-02-23T05:19:58;44.32;43.14;46.71;;
56099;Laerm;44276;49.534;6.378;2024-02-23T05:22:26;44.31;42.98;46.84;;
56099;Laerm;44276;49.534;6.378;2024-02-23T05:24:54;44.30;43.09;45.51;;
56099;Laerm;44276;49.534;6.378;2024-02-23T05:27:22;44.30;43.04;48.18;;
56099;Laerm;44276;49.534;6.378;2024-02-23T05:29:52;44.32;43.09;45.97;;
56099;Laerm;44276;49.534;6.378;2024-02-23T05:32:20;44.30;42.88;45.63;;
56099;Laerm;44276;49.534;6.378;2024-02-23T05:34:48;44.30;43.19;46.84;;
56099;Laerm;44276;49.534;6.378;2024-02-23T05:37:20;44.29;43.09;45.54;;
56099;Laerm;44276;49.534;6.378;2024-02-23T05:39:48;44.35;43.05;46.87;;
56099;Laerm;44276;49.534;6.378;2024-02-23T05:42:16;44.28;42.93;45.45;;
56099;Laerm;44276;49.534;6.378;2024-02-23T05:44:44;44.29;43.09;45.36;;
56099;Laerm;44276;49.534;6.378;2024-02-23T05:47:14;44.31;42.93;45.39;;
56099;Laerm;44276;49.534;6.378;2024-02-23T05:49:43;44.32;42.98;45.39;;
56099;Laerm;44276;49.534;6.378;2024-02-23T05:52:11;44.36;42.76;46.69;;
56099;Laerm;44276;49.534;6.378;2024-02-23T05:54:39;44.31;43.14;46.33;;
56099;Laerm;44276;49.534;6.378;2024-02-23T05:57:07;44.28;43.19;45.30;;
56099;Laerm;44276;49.534;6.378;2024-02-23T05:59:35;44.33;43.09;45.91;;
56099;Laerm;44276;49.534;6.378;2024-02-23T06:02:04;44.30;43.09;45.33;;
56099;Laerm;44276;49.534;6.378;2024-02-23T06:04:34;44.39;43.14;51.81;;
56099;Laerm;44276;49.534;6.378;2024-02-23T06:07:02;44.51;43.19;49.26;;
56099;Laerm;44276;49.534;6.378;2024-02-23T06:09:30;44.41;42.93;47.65;;
56099;Laerm;44276;49.534;6.378;2024-02-23T06:11:59;44.37;43.14;46.25;;
56099;Laerm;44276;49.534;6.378;2024-02-23T06:14:27;44.37;43.19;45.86;;
56099;Laerm;44276;49.534;6.378;2024-02-23T06:16:55;44.36;42.93;45.37;;
56099;Laerm;44276;49.534;6.378;2024-02-23T06:19:24;44.38;43.04;47.44;;
56099;Laerm;44276;49.534;6.378;2024-02-23T06:21:54;44.36;42.98;45.78;;
56099;Laerm;44276;49.534;6.378;2024-02-23T06:24:22;44.39;43.09;47.57;;
56099;Laerm;44276;49.534;6.378;2024-02-23T06:26:50;44.37;43.19;46.25;;
56099;Laerm;44276;49.534;6.378;2024-02-23T06:29:19;44.39;43.14;46.78;;
56099;Laerm;44276;49.534;6.378;2024-02-23T06:31:47;44.35;43.24;45.77;;
56099;Laerm;44276;49.534;6.378;2024-02-23T06:34:16;44.36;43.05;47.02;;
56099;Laerm;44276;49.534;6.378;2024-02-23T06:36:45;44.37;43.14;45.66;;
56099;Laerm;44276;49.534;6.378;2024-02-23T06:39:14;44.37;42.98;47.55;;
56099;Laerm;44276;49.534;6.378;2024-02-23T06:41:45;44.38;43.24;46.55;;
56099;Laerm;44276;49.534;6.378;2024-02-23T06:44:13;44.36;43.14;46.71;;
56099;Laerm;44276;49.534;6.378;2024-02-23T06:46:43;44.35;43.04;46.35;;
56099;Laerm;44276;49.534;6.378;2024-02-23T06:49:11;44.34;43.14;45.57;;
56099;Laerm;44276;49.534;6.378;2024-02-23T06:51:40;44.35;43.24;47.06;;
56099;Laerm;44276;49.534;6.378;2024-02-23T06:54:09;44.36;43.24;46.52;;
56099;Laerm;44276;49.534;6.378;2024-02-23T06:56:38;44.39;43.04;48.67;;
56099;Laerm;44276;49.534;6.378;2024-02-23T06:59:07;44.37;43.14;46.38;;
56099;Laerm;44276;49.534;6.378;2024-02-23T07:01:35;44.33;43.19;45.66;;
56099;Laerm;44276;49.534;6.378;2024-02-23T07:04:07;44.34;43.04;45.54;;
56099;Laerm;44276;49.534;6.378;2024-02-23T07:06:35;44.37;42.93;45.45;;
56099;Laerm;44276;49.534;6.378;2024-02-23T07:09:04;44.37;43.14;46.13;;
56099;Laerm;44276;49.534;6.378;2024-02-23T07:11:32;44.45;43.24;48.55;;
56099;Laerm;44276;49.534;6.378;2024-02-23T07:14:02;44.46;43.14;47.86;;
56099;Laerm;44276;49.534;6.378;2024-02-23T07:16:32;44.45;43.14;49.35;;
56099;Laerm;44276;49.534;6.378;2024-02-23T07:19:00;44.47;43.34;51.90;;
56099;Laerm;44276;49.534;6.378;2024-02-23T07:21:29;44.43;43.09;46.91;;
56099;Laerm;44276;49.534;6.378;2024-02-23T07:23:57;44.47;43.04;50.95;;
56099;Laerm;44276;49.534;6.378;2024-02-23T07:26:26;44.45;43.29;46.73;;
56099;Laerm;44276;49.534;6.378;2024-02-23T07:28:55;44.58;43.14;50.10;;
56099;Laerm;44276;49.534;6.378;2024-02-23T07:31:24;44.51;43.29;49.57;;
56099;Laerm;44276;49.534;6.378;2024-02-23T07:33:53;44.53;43.29;47.77;;
56099;Laerm;44276;49.534;6.378;2024-02-23T07:36:21;44.50;43.24;48.40;;
56099;Laerm;44276;49.534;6.378;2024-02-23T07:38:49;44.47;43.29;47.18;;
56099;Laerm;44276;49.534;6.378;2024-02-23T07:41:17;44.51;43.14;48.69;;
56099;Laerm;44276;49.534;6.378;2024-02-23T07:43:46;44.48;43.04;48.96;;
56099;Laerm;44276;49.534;6.378;2024-02-23T07:46:14;44.45;43.14;48.16;;
56099;Laerm;44276;49.534;6.378;2024-02-23T07:48:44;44.40;43.19;48.28;;
56099;Laerm;44276;49.534;6.378;2024-02-23T07:51:15;44.34;43.14;45.45;;
56099;Laerm;44276;49.534;6.378;2024-02-23T07:53:43;44.40;42.93;47.55;;
56099;Laerm;44276;49.534;6.378;2024-02-23T07:56:11;44.54;43.14;50.17;;
56099;Laerm;44276;49.534;6.378;2024-02-23T07:58:39;44.41;43.24;46.76;;
56099;Laerm;44276;49.534;6.378;2024-02-23T08:01:08;44.41;43.19;45.69;;
56099;Laerm;44276;49.534;6.378;2024-02-23T08:03:36;44.39;43.29;45.57;;
56099;Laerm;44276;49.534;6.378;2024-02-23T08:06:08;44.41;43.09;45.60;;
56099;Laerm;44276;49.534;6.378;2024-02-23T08:08:36;44.41;43.34;45.75;;
56099;Laerm;44276;49.534;6.378;2024-02-23T08:11:05;44.48;43.34;49.38;;
56099;Laerm;44276;49.534;6.378;2024-02-23T08:13:33;44.41;43.14;45.94;;
56099;Laerm;44276;49.534;6.378;2024-02-23T08:16:01;44.49;43.29;48.57;;
56099;Laerm;44276;49.534;6.378;2024-02-23T08:18:30;44.42;43.34;45.51;;
56099;Laerm;44276;49.534;6.378;2024-02-23T08:20:59;44.42;43.09;46.20;;
56099;Laerm;44276;49.534;6.378;2024-02-23T08:23:30;44.49;43.14;47.38;;
56099;Laerm;44276;49.534;6.378;2024-02-23T08:25:59;44.45;43.14;45.77;;
56099;Laerm;44276;49.534;6.378;2024-02-23T08:28:27;44.46;43.34;46.35;;
56099;Laerm;44276;49.534;6.378;2024-02-23T08:30:56;44.55;43.19;47.42;;
56099;Laerm;44276;49.534;6.378;2024-02-23T08:33:24;44.73;43.09;53.40;;
56099;Laerm;44276;49.534;6.378;2024-02-23T08:35:52;44.52;43.04;48.32;;
56099;Laerm;44276;49.534;6.378;2024-02-23T08:38:20;44.79;43.34;52.02;;
56099;Laerm;44276;49.534;6.378;2024-02-23T08:40:50;44.58;43.34;47.20;;
56099;Laerm;44276;49.534;6.378;2024-02-23T08:43:18;44.51;43.34;47.48;;
56099;Laerm;44276;49.534;6.378;2024-02-23T08:45:47;44.50;43.19;46.20;;
56099;Laerm;44276;49.534;6.378;2024-02-23T08:48:15;44.84;43.37;53.38;;
56099;Laerm;44276;49.534;6.378;2024-02-23T08:50:44;44.62;43.24;50.14;;
56099;Laerm;44276;49.534;6.378;2024-02-23T08:53:12;44.67;43.29;49.43;;
56099;Laerm;44276;49.534;6.378;2024-02-23T08:55:40;44.84;43.19;53.63;;
56099;Laerm;44276;49.534;6.378;2024-02-23T08:58:10;44.59;43.14;48.52;;
56099;Laerm;44276;49.534;6.378;2024-02-23T09:00:38;44.50;43.14;45.60;;
56099;Laerm;44276;49.534;6.378;2024-02-23T09:03:06;44.80;43.44;51.90;;
56099;Laerm;44276;49.534;6.378;2024-02-23T09:05:34;44.76;43.44;49.00;;
56099;Laerm;44276;49.534;6.378;2024-02-23T09:08:04;44.59;43.34;47.02;;
56099;Laerm;44276;49.534;6.378;2024-02-23T09:10:33;44.60;42.88;48.13;;
56099;Laerm;44276;49.534;6.378;2024-02-23T09:13:01;44.90;43.34;54.97;;
56099;Laerm;44276;49.534;6.378;2024-02-23T09:15:31;44.96;43.54;52.41;;
56099;Laerm;44276;49.534;6.378;2024-02-23T09:18:00;44.74;43.09;50.54;;
56099;Laerm;44276;49.534;6.378;2024-02-23T09:20:28;44.58;43.39;47.67;;
56099;Laerm;44276;49.534;6.378;2024-02-23T09:22:58;44.74;43.39;49.78;;
56099;Laerm;44276;49.534;6.378;2024-02-23T09:25:26;44.81;43.39;52.63;;
56099;Laerm;44276;49.534;6.378;2024-02-23T09:27:57;45.45;43.44;57.70;;
56099;Laerm;44276;49.534;6.378;2024-02-23T09:30:25;44.78;43.44;50.22;;
56099;Laerm;44276;49.534;6.378;2024-02-23T09:32:55;45.27;43.33;53.52;;
56099;Laerm;44276;49.534;6.378;2024-02-23T09:35:23;45.47;43.49;54.15;;
56099;Laerm;44276;49.534;6.378;2024-02-23T09:37:52;45.03;43.58;58.26;;
56099;Laerm;44276;49.534;6.378;2024-02-23T09:40:20;45.20;43.34;53.55;;
56099;Laerm;44276;49.534;6.378;2024-02-23T09:42:55;45.28;43.54;58.80;;
56099;Laerm;44276;49.534;6.378;2024-02-23T09:45:25;44.91;43.14;53.08;;
56099;Laerm;44276;49.534;6.378;2024-02-23T09:47:57;44.85;43.49;51.20;;
56099;Laerm;44276;49.534;6.378;2024-02-23T09:50:28;45.55;43.44;54.62;;
56099;Laerm;44276;49.534;6.378;2024-02-23T09:52:58;44.81;43.49;51.29;;
56099;Laerm;44276;49.534;6.378;2024-02-23T09:55:27;44.83;43.39;49.78;;
56099;Laerm;44276;49.534;6.378;2024-02-23T09:57:58;44.67;43.29;49.25;;
56099;Laerm;44276;49.534;6.378;2024-02-23T10:00:28;44.83;43.42;49.70;;
56099;Laerm;44276;49.534;6.378;2024-02-23T10:02:58;45.01;43.34;49.91;;
56099;Laerm;44276;49.534;6.378;2024-02-23T10:05:30;44.78;43.42;52.68;;
56099;Laerm;44276;49.534;6.378;2024-02-23T10:08:05;44.84;43.55;50.12;;
56099;Laerm;44276;49.534;6.378;2024-02-23T10:10:34;45.30;43.54;53.27;;
56099;Laerm;44276;49.534;6.378;2024-02-23T10:13:05;44.78;43.19;52.41;;
56099;Laerm;44276;49.534;6.378;2024-02-23T10:15:34;44.61;43.39;45.89;;
56099;Laerm;44276;49.534;6.378;2024-02-23T10:18:04;44.60;43.29;45.89;;
56099;Laerm;44276;49.534;6.378;2024-02-23T10:20:32;44.84;43.19;52.81;;
56099;Laerm;44276;49.534;6.378;2024-02-23T10:23:01;44.85;43.29;49.82;;
56099;Laerm;44276;49.534;6.378;2024-02-23T10:25:33;44.72;43.34;47.93;;
56099;Laerm;44276;49.534;6.378;2024-02-23T10:28:02;44.68;43.58;46.28;;
56099;Laerm;44276;49.534;6.378;2024-02-23T10:30:30;45.04;43.58;55.28;;
56099;Laerm;44276;49.534;6.378;2024-02-23T10:32:59;44.74;43.49;48.73;;
56099;Laerm;44276;49.534;6.378;2024-02-23T10:35:31;44.69;43.39;48.12;;
56099;Laerm;44276;49.534;6.378;2024-02-23T10:38:04;44.70;43.39;48.13;;
56099;Laerm;44276;49.534;6.378;2024-02-23T10:40:34;44.69;43.34;48.21;;
56099;Laerm;44276;49.534;6.378;2024-02-23T10:43:06;44.67;43.34;46.95;;
56099;Laerm;44276;49.534;6.378;2024-02-23T10:45:40;44.67;43.39;48.85;;
56099;Laerm;44276;49.534;6.378;2024-02-23T10:48:11;44.63;43.44;47.90;;
56099;Laerm;44276;49.534;6.378;2024-02-23T10:50:43;44.70;43.49;50.61;;
56099;Laerm;44276;49.534;6.378;2024-02-23T10:53:13;44.66;43.09;47.04;;
56099;Laerm;44276;49.534;6.378;2024-02-23T10:55:45;44.72;43.44;47.83;;
56099;Laerm;44276;49.534;6.378;2024-02-23T10:58:13;44.73;43.39;49.56;;
56099;Laerm;44276;49.534;6.378;2024-02-23T11:00:43;44.99;43.63;51.19;;
56099;Laerm;44276;49.534;6.378;2024-02-23T11:03:14;44.84;43.44;50.52;;
56099;Laerm;44276;49.534;6.378;2024-02-23T11:05:47;45.10;43.58;55.30;;
56099;Laerm;44276;49.534;6.378;2024-02-23T11:08:18;45.15;43.54;52.84;;
56099;Laerm;44276;49.534;6.378;2024-02-23T11:10:50;44.76;43.49;47.32;;
56099;Laerm;44276;49.534;6.378;2024-02-23T11:13:37;45.27;43.49;52.74;;
56099;Laerm;44276;49.534;6.378;2024-02-23T11:16:10;45.07;43.39;54.57;;
56099;Laerm;44276;49.534;6.378;2024-02-23T11:18:49;45.15;43.49;56.66;;
56099;Laerm;44276;49.534;6.378;2024-02-23T11:21:56;46.53;43.44;60.63;;
56099;Laerm;44276;49.534;6.378;2024-02-23T11:24:30;46.05;43.68;56.82;;
56099;Laerm;44276;49.534;6.378;2024-02-23T11:26:58;45.20;43.58;53.84;;
56099;Laerm;44276;49.534;6.378;2024-02-23T11:29:29;44.96;43.49;53.74;;
56099;Laerm;44276;49.534;6.378;2024-02-23T11:32:00;44.83;43.39;50.00;;
56099;Laerm;44276;49.534;6.378;2024-02-23T11:34:31;44.81;43.39;49.72;;
56099;Laerm;44276;49.534;6.378;2024-02-23T11:37:09;44.93;43.39;50.84;;
56099;Laerm;44276;49.534;6.378;2024-02-23T11:39:38;44.90;43.39;51.97;;
56099;Laerm;44276;49.534;6.378;2024-02-23T11:42:08;45.10;43.58;54.24;;
56099;Laerm;44276;49.534;6.378;2024-02-23T11:44:38;45.03;43.54;54.45;;
56099;Laerm;44276;49.534;6.378;2024-02-23T11:47:08;45.20;43.44;54.62;;
56099;Laerm;44276;49.534;6.378;2024-02-23T11:49:36;44.81;43.44;51.95;;
56099;Laerm;44276;49.534;6.378;2024-02-23T11:52:06;45.06;43.44;54.13;;
56099;Laerm;44276;49.534;6.378;2024-02-23T11:55:06;44.85;43.49;48.96;;
56099;Laerm;44276;49.534;6.378;2024-02-23T11:57:45;44.78;43.54;49.02;;
56099;Laerm;44276;49.534;6.378;2024-02-23T12:00:16;44.78;43.49;50.49;;
56099;Laerm;44276;49.534;6.378;2024-02-23T12:02:44;44.66;43.39;46.15;;
56099;Laerm;44276;49.534;6.378;2024-02-23T12:05:13;44.96;43.63;53.69;;
56099;Laerm;44276;49.534;6.378;2024-02-23T12:07:44;44.76;43.49;47.68;;
56099;Laerm;44276;49.534;6.378;2024-02-23T12:10:14;44.70;43.49;48.08;;
56099;Laerm;44276;49.534;6.378;2024-02-23T12:12:42;44.69;43.44;46.73;;
56099;Laerm;44276;49.534;6.378;2024-02-23T12:15:11;44.94;43.63;51.70;;
56099;Laerm;44276;49.534;6.378;2024-02-23T12:17:47;45.48;43.54;54.23;;
56099;Laerm;44276;49.534;6.378;2024-02-23T12:20:16;44.69;43.54;46.10;;
56099;Laerm;44276;49.534;6.378;2024-02-23T12:22:47;44.74;43.49;48.31;;
56099;Laerm;44276;49.534;6.378;2024-02-23T12:25:16;45.16;43.24;54.36;;
56099;Laerm;44276;49.534;6.378;2024-02-23T12:27:45;44.97;43.34;51.53;;
56099;Laerm;44276;49.534;6.378;2024-02-23T12:30:14;45.46;43.34;54.87;;
56099;Laerm;44276;49.534;6.378;2024-02-23T12:32:43;45.04;43.39;55.74;;
56099;Laerm;44276;49.534;6.378;2024-02-23T12:35:12;44.65;43.09;48.58;;
56099;Laerm;44276;49.534;6.378;2024-02-23T12:37:40;44.79;43.04;50.56;;
56099;Laerm;44276;49.534;6.378;2024-02-23T12:40:13;44.42;43.09;47.74;;
56099;Laerm;44276;49.534;6.378;2024-02-23T12:42:41;44.41;43.19;46.45;;
56099;Laerm;44276;49.534;6.378;2024-02-23T12:45:09;44.31;43.09;45.91;;
56099;Laerm;44276;49.534;6.378;2024-02-23T12:47:37;44.37;43.04;45.69;;
56099;Laerm;44276;49.534;6.378;2024-02-23T12:50:07;44.39;43.14;45.63;;
56099;Laerm;44276;49.534;6.378;2024-02-23T12:52:37;44.42;43.14;45.77;;
56099;Laerm;44276;49.534;6.378;2024-02-23T12:55:06;44.43;43.34;45.54;;
56099;Laerm;44276;49.534;6.378;2024-02-23T12:57:36;44.39;43.04;46.52;;
56099;Laerm;44276;49.534;6.378;2024-02-23T13:00:06;44.32;43.19;45.94;;
56099;Laerm;44276;49.534;6.378;2024-02-23T13:02:35;44.42;43.09;46.07;;
56099;Laerm;44276;49.534;6.378;2024-02-23T13:05:04;44.39;43.24;45.80;;
56099;Laerm;44276;49.534;6.378;2024-02-23T13:07:32;45.08;43.24;54.42;;
56099;Laerm;44276;49.534;6.378;2024-02-23T13:10:00;46.32;43.14;59.67;;
56099;Laerm;44276;49.534;6.378;2024-02-23T13:12:28;46.81;42.98;58.66;;
56099;Laerm;44276;49.534;6.378;2024-02-23T13:14:58;45.99;42.82;58.65;;
56099;Laerm;44276;49.534;6.378;2024-02-23T13:17:26;47.80;42.98;63.38;;
56099;Laerm;44276;49.534;6.378;2024-02-23T13:19:54;46.56;42.93;57.41;;
56099;Laerm;44276;49.534;6.378;2024-02-23T13:22:37;44.27;42.76;49.90;;
56099;Laerm;44276;49.534;6.378;2024-02-23T13:25:05;45.59;42.53;56.55;;
56099;Laerm;44276;49.534;6.378;2024-02-23T13:27:34;47.14;42.53;61.52;;
56099;Laerm;44276;49.534;6.378;2024-02-23T13:30:05;48.92;42.16;65.63;;
56099;Laerm;44276;49.534;6.378;2024-02-23T13:32:34;48.90;42.09;64.47;;
56099;Laerm;44276;49.534;6.378;2024-02-23T13:35:03;45.77;41.89;58.11;;
56099;Laerm;44276;49.534;6.378;2024-02-23T13:37:33;49.44;42.09;63.36;;
56099;Laerm;44276;49.534;6.378;2024-02-23T13:40:02;49.32;41.06;64.74;;
56099;Laerm;44276;49.534;6.378;2024-02-23T13:42:31;45.75;41.22;56.49;;
56099;Laerm;44276;49.534;6.378;2024-02-23T13:44:59;44.86;41.22;55.47;;
56099;Laerm;44276;49.534;6.378;2024-02-23T13:47:29;45.94;41.06;57.26;;
56099;Laerm;44276;49.534;6.378;2024-02-23T13:49:57;44.32;40.13;55.08;;
56099;Laerm;44276;49.534;6.378;2024-02-23T13:52:25;46.33;40.80;60.07;;
56099;Laerm;44276;49.534;6.378;2024-02-23T13:54:54;45.88;41.11;59.03;;